sensor_id;sensor_type;location;lat;lon;timestamp;P1;durP1;ratioP1;P2;durP2;ratioP2
12418;SDS011;6273;52.312;9.178;2022-08-19T07:31:11;21.83;;;13.40;;
12418;SDS011;6273;52.312;9.178;2022-08-19T07:33:39;17.87;;;11.50;;
12418;SDS011;6273;52.312;9.178;2022-08-19T07:38:42;17.47;;;12.13;;
12418;SDS011;6273;52.312;9.178;2022-08-19T07:41:10;16.10;;;12.40;;
12418;SDS011;6273;52.312;9.178;2022-08-19T07:43:37;30.60;;;13.03;;
12418;SDS011;6273;52.312;9.178;2022-08-19T07:46:03;17.60;;;11.30;;
12418;SDS011;6273;52.312;9.178;2022-08-19T07:48:29;16.60;;;13.43;;
12418;SDS011;6273;52.312;9.178;2022-08-19T07:50:55;18.77;;;11.73;;
12418;SDS011;6273;52.312;9.178;2022-08-19T07:53:24;16.80;;;11.07;;
12418;SDS011;6273;52.312;9.178;2022-08-19T13:03:29;4.40;;;1.53;;
12418;SDS011;6273;52.312;9.178;2022-08-19T13:06:02;1.83;;;1.10;;
12418;SDS011;6273;52.312;9.178;2022-08-19T13:08:28;1.30;;;1.10;;
12418;SDS011;6273;52.312;9.178;2022-08-19T13:10:54;2.57;;;1.73;;
12418;SDS011;6273;52.312;9.178;2022-08-19T13:13:20;1.33;;;1.23;;
12418;SDS011;6273;52.312;9.178;2022-08-19T13:15:46;8.90;;;2.33;;
12418;SDS011;6273;52.312;9.178;2022-08-19T13:18:12;4.10;;;1.70;;
12418;SDS011;6273;52.312;9.178;2022-08-19T13:20:38;4.43;;;1.17;;
12418;SDS011;6273;52.312;9.178;2022-08-19T13:23:05;3.30;;;1.30;;
12418;SDS011;6273;52.312;9.178;2022-08-19T13:25:32;1.10;;;1.00;;
12418;SDS011;6273;52.312;9.178;2022-08-19T13:27:58;1.40;;;1.30;;
12418;SDS011;6273;52.312;9.178;2022-08-19T13:30:24;2.70;;;1.23;;
12418;SDS011;6273;52.312;9.178;2022-08-19T13:33:09;5.33;;;1.47;;
12418;SDS011;6273;52.312;9.178;2022-08-19T13:35:44;2.40;;;1.70;;
12418;SDS011;6273;52.312;9.178;2022-08-19T13:40:49;2.23;;;1.47;;
12418;SDS011;6273;52.312;9.178;2022-08-19T13:43:41;3.67;;;1.90;;
12418;SDS011;6273;52.312;9.178;2022-08-19T14:27:52;4.43;;;2.03;;
12418;SDS011;6273;52.312;9.178;2022-08-19T15:21:57;2.40;;;1.80;;
12418;SDS011;6273;52.312;9.178;2022-08-19T15:24:25;2.83;;;1.63;;
12418;SDS011;6273;52.312;9.178;2022-08-19T16:36:48;4.80;;;2.17;;
12418;SDS011;6273;52.312;9.178;2022-08-19T16:39:14;2.63;;;1.37;;
12418;SDS011;6273;52.312;9.178;2022-08-19T16:41:42;3.10;;;1.20;;
12418;SDS011;6273;52.312;9.178;2022-08-19T16:44:10;1.47;;;1.37;;
12418;SDS011;6273;52.312;9.178;2022-08-19T16:46:37;1.53;;;1.33;;
12418;SDS011;6273;52.312;9.178;2022-08-19T16:49:05;1.70;;;1.60;;
12418;SDS011;6273;52.312;9.178;2022-08-19T16:51:32;2.10;;;1.50;;
12418;SDS011;6273;52.312;9.178;2022-08-19T16:53:58;1.93;;;1.83;;
12418;SDS011;6273;52.312;9.178;2022-08-19T16:59:57;1.53;;;1.37;;
12418;SDS011;6273;52.312;9.178;2022-08-19T17:02:23;1.70;;;1.60;;
12418;SDS011;6273;52.312;9.178;2022-08-19T17:04:49;1.60;;;1.50;;
12418;SDS011;6273;52.312;9.178;2022-08-19T17:07:16;1.40;;;1.30;;
12418;SDS011;6273;52.312;9.178;2022-08-19T17:09:41;2.13;;;1.80;;
12418;SDS011;6273;52.312;9.178;2022-08-19T17:12:07;2.43;;;2.23;;
12418;SDS011;6273;52.312;9.178;2022-08-19T17:14:33;1.77;;;1.67;;
12418;SDS011;6273;52.312;9.178;2022-08-19T17:16:59;1.80;;;1.70;;
12418;SDS011;6273;52.312;9.178;2022-08-19T17:19:24;2.47;;;1.73;;
12418;SDS011;6273;52.312;9.178;2022-08-19T17:21:51;9.43;;;2.23;;
12418;SDS011;6273;52.312;9.178;2022-08-19T17:24:17;3.03;;;1.70;;
12418;SDS011;6273;52.312;9.178;2022-08-19T17:26:42;4.90;;;1.40;;
12418;SDS011;6273;52.312;9.178;2022-08-19T17:29:08;3.10;;;2.00;;
12418;SDS011;6273;52.312;9.178;2022-08-19T17:31:34;5.33;;;1.83;;
12418;SDS011;6273;52.312;9.178;2022-08-19T17:34:00;2.07;;;1.97;;
12418;SDS011;6273;52.312;9.178;2022-08-19T17:36:27;2.43;;;1.50;;
12418;SDS011;6273;52.312;9.178;2022-08-19T17:38:55;3.90;;;2.40;;
12418;SDS011;6273;52.312;9.178;2022-08-19T17:41:22;2.50;;;1.60;;
12418;SDS011;6273;52.312;9.178;2022-08-19T17:43:49;3.00;;;1.83;;
12418;SDS011;6273;52.312;9.178;2022-08-19T17:46:15;1.70;;;1.60;;
12418;SDS011;6273;52.312;9.178;2022-08-19T17:48:42;3.63;;;1.80;;
12418;SDS011;6273;52.312;9.178;2022-08-19T17:53:46;1.77;;;1.40;;
12418;SDS011;6273;52.312;9.178;2022-08-19T17:56:12;2.93;;;1.70;;
12418;SDS011;6273;52.312;9.178;2022-08-19T17:58:41;2.17;;;1.90;;
12418;SDS011;6273;52.312;9.178;2022-08-19T18:01:08;9.40;;;2.90;;
12418;SDS011;6273;52.312;9.178;2022-08-19T18:03:36;1.90;;;1.80;;
12418;SDS011;6273;52.312;9.178;2022-08-19T18:06:05;2.87;;;2.10;;
12418;SDS011;6273;52.312;9.178;2022-08-19T18:08:36;2.30;;;2.10;;
12418;SDS011;6273;52.312;9.178;2022-08-19T18:11:03;2.10;;;2.00;;
12418;SDS011;6273;52.312;9.178;2022-08-19T18:13:29;1.53;;;1.43;;
12418;SDS011;6273;52.312;9.178;2022-08-19T18:15:58;2.60;;;2.40;;
12418;SDS011;6273;52.312;9.178;2022-08-19T18:18:44;2.27;;;2.07;;
12418;SDS011;6273;52.312;9.178;2022-08-19T18:21:19;2.50;;;2.07;;
12418;SDS011;6273;52.312;9.178;2022-08-19T18:24:00;2.20;;;2.00;;
12418;SDS011;6273;52.312;9.178;2022-08-19T18:26:26;2.70;;;2.27;;
12418;SDS011;6273;52.312;9.178;2022-08-19T18:28:52;2.27;;;2.00;;
12418;SDS011;6273;52.312;9.178;2022-08-19T18:31:18;4.80;;;2.03;;
12418;SDS011;6273;52.312;9.178;2022-08-19T18:33:43;3.20;;;2.57;;
12418;SDS011;6273;52.312;9.178;2022-08-19T18:36:10;3.60;;;2.83;;
12418;SDS011;6273;52.312;9.178;2022-08-19T18:38:36;3.37;;;2.37;;
12418;SDS011;6273;52.312;9.178;2022-08-19T18:41:20;2.80;;;2.60;;
12418;SDS011;6273;52.312;9.178;2022-08-19T18:44:04;3.00;;;2.80;;
12418;SDS011;6273;52.312;9.178;2022-08-19T19:09:20;2.50;;;2.03;;
12418;SDS011;6273;52.312;9.178;2022-08-19T19:11:48;6.97;;;5.27;;
12418;SDS011;6273;52.312;9.178;2022-08-19T19:14:22;4.50;;;3.50;;
12418;SDS011;6273;52.312;9.178;2022-08-19T19:16:50;5.07;;;4.57;;
12418;SDS011;6273;52.312;9.178;2022-08-19T19:19:16;7.53;;;3.47;;
12418;SDS011;6273;52.312;9.178;2022-08-19T19:21:43;3.90;;;2.90;;
12418;SDS011;6273;52.312;9.178;2022-08-19T19:24:16;2.97;;;2.77;;
12418;SDS011;6273;52.312;9.178;2022-08-19T20:51:33;2.13;;;1.97;;
12418;SDS011;6273;52.312;9.178;2022-08-19T22:57:57;3.60;;;1.83;;
12418;SDS011;6273;52.312;9.178;2022-08-19T23:00:24;4.20;;;2.07;;
12418;SDS011;6273;52.312;9.178;2022-08-19T23:02:52;4.57;;;1.90;;
12418;SDS011;6273;52.312;9.178;2022-08-19T23:05:19;2.00;;;1.80;;
